createdAt,value
2022-10-31T00:01:24.949Z,11.07
2022-10-31T00:03:51.653Z,10.74
2022-10-31T00:06:21.201Z,11.02
2022-10-31T00:08:48.841Z,10.66
2022-10-31T00:11:15.453Z,10.64
2022-10-31T00:13:42.079Z,10.76
2022-10-31T00:16:18.200Z,10.67
2022-10-31T00:18:48.588Z,10.68
2022-10-31T00:21:15.653Z,10.78
2022-10-31T00:23:42.294Z,11.08
2022-10-31T00:26:09.077Z,10.99
2022-10-31T00:28:35.757Z,11.02
2022-10-31T00:31:04.598Z,10.77
2022-10-31T00:33:31.253Z,10.66
2022-10-31T00:35:57.950Z,10.84
2022-10-31T00:38:24.677Z,10.86
2022-10-31T00:40:51.271Z,10.47
2022-10-31T00:43:17.882Z,10.22
2022-10-31T00:45:44.681Z,10.49
2022-10-31T00:48:11.823Z,10.44
2022-10-31T00:50:39.289Z,10.73
2022-10-31T00:53:06.435Z,10.84
2022-10-31T00:55:33.066Z,10.59
2022-10-31T00:58:00.098Z,10.47
2022-10-31T01:00:27.325Z,10.25
2022-10-31T01:02:53.931Z,10.34
2022-10-31T01:05:21.265Z,10.54
2022-10-31T01:07:48.202Z,10.42
2022-10-31T01:10:14.943Z,10.42
2022-10-31T01:12:47.696Z,10.55
2022-10-31T01:15:17.723Z,10.78
2022-10-31T01:17:44.378Z,10.65
2022-10-31T01:20:13.204Z,10.62
2022-10-31T01:22:39.864Z,10.38
2022-10-31T01:25:07.695Z,10.41
2022-10-31T01:27:34.266Z,10.59
2022-10-31T01:30:00.985Z,10.61
2022-10-31T01:32:29.829Z,10.57
2022-10-31T01:34:56.441Z,10.53
2022-10-31T01:37:23.037Z,10.52
2022-10-31T01:39:50.153Z,10.61
2022-10-31T01:42:20.346Z,10.54
2022-10-31T01:44:57.702Z,10.52
2022-10-31T01:47:39.434Z,10.35
2022-10-31T01:50:13.430Z,10.58
2022-10-31T01:52:50.525Z,10.64
2022-10-31T01:55:29.141Z,10.28
2022-10-31T01:58:04.993Z,10.18
2022-10-31T02:00:31.816Z,10.00
2022-10-31T02:03:00.508Z,10.12
2022-10-31T02:05:31.232Z,10.19
2022-10-31T02:08:16.469Z,10.35
2022-10-31T02:10:44.901Z,10.11
2022-10-31T02:13:13.894Z,10.24
2022-10-31T02:15:43.923Z,10.15
2022-10-31T02:18:10.784Z,10.00
2022-10-31T02:20:52.210Z,10.10
2022-10-31T02:23:37.054Z,10.23
2022-10-31T02:26:18.834Z,10.34
2022-10-31T02:29:15.182Z,10.18
2022-10-31T02:31:57.978Z,10.13
2022-10-31T02:34:45.631Z,10.18
2022-10-31T02:37:14.657Z,10.20
2022-10-31T02:39:54.685Z,10.23
2022-10-31T02:42:50.237Z,10.23
2022-10-31T02:45:19.925Z,10.22
2022-10-31T02:47:50.061Z,10.13
2022-10-31T02:50:20.209Z,10.19
2022-10-31T02:52:52.330Z,10.18
2022-10-31T02:55:27.942Z,10.17
2022-10-31T02:58:00.288Z,10.13
2022-10-31T03:00:27.165Z,10.03
2022-10-31T03:02:56.619Z,10.12
2022-10-31T03:05:41.497Z,10.13
2022-10-31T03:08:42.718Z,10.10
2022-10-31T03:11:10.797Z,10.09
2022-10-31T03:13:47.966Z,10.01
2022-10-31T03:16:59.101Z,10.07
2022-10-31T03:19:34.086Z,9.95
2022-10-31T03:22:26.801Z,9.97
2022-10-31T03:24:55.492Z,10.03
2022-10-31T03:27:27.376Z,9.74
2022-10-31T03:29:57.357Z,10.00
2022-10-31T03:32:32.705Z,9.91
2022-10-31T03:35:04.025Z,9.90
2022-10-31T03:37:33.769Z,10.03
2022-10-31T03:40:03.003Z,9.85
2022-10-31T03:42:34.437Z,9.89
2022-10-31T03:45:03.937Z,10.00
2022-10-31T03:47:30.782Z,9.86
2022-10-31T03:49:58.113Z,9.79
2022-10-31T03:52:36.867Z,9.83
2022-10-31T03:55:29.417Z,9.98
2022-10-31T03:58:05.081Z,9.88
2022-10-31T04:00:34.974Z,9.91
2022-10-31T04:03:15.488Z,9.92
2022-10-31T04:05:46.913Z,9.91
2022-10-31T04:08:21.281Z,9.94
2022-10-31T04:10:50.818Z,10.03
2022-10-31T04:13:24.011Z,10.02
2022-10-31T04:15:55.093Z,10.07
2022-10-31T04:18:24.065Z,9.90
2022-10-31T04:21:00.132Z,9.93
2022-10-31T04:23:27.472Z,9.99
2022-10-31T04:25:54.110Z,9.86
2022-10-31T04:28:20.777Z,10.00
2022-10-31T04:30:47.375Z,9.84
2022-10-31T04:33:14.025Z,9.96
2022-10-31T04:35:41.091Z,9.86
2022-10-31T04:38:07.837Z,9.92
2022-10-31T04:40:34.418Z,9.95
2022-10-31T04:43:01.177Z,9.66
2022-10-31T04:45:27.989Z,9.80
2022-10-31T04:47:54.560Z,9.75
2022-10-31T04:50:22.277Z,9.77
2022-10-31T04:52:48.838Z,9.71
2022-10-31T04:55:15.922Z,9.80
2022-10-31T04:57:46.504Z,9.75
2022-10-31T05:00:15.342Z,9.64
2022-10-31T05:02:48.299Z,9.79
2022-10-31T05:05:16.520Z,9.79
2022-10-31T05:07:45.161Z,9.77
2022-10-31T05:10:14.595Z,9.78
2022-10-31T05:12:56.136Z,9.90
2022-10-31T05:15:25.357Z,10.07
2022-10-31T05:17:52.901Z,10.29
2022-10-31T05:20:21.877Z,10.08
2022-10-31T05:22:51.073Z,9.96
2022-10-31T05:25:19.272Z,9.86
2022-10-31T05:27:48.494Z,9.90
2022-10-31T05:30:18.419Z,9.70
2022-10-31T05:32:45.833Z,10.00
2022-10-31T05:35:16.102Z,9.92
2022-10-31T05:37:43.302Z,9.86
2022-10-31T05:40:15.616Z,9.80
2022-10-31T05:42:43.970Z,9.81
2022-10-31T05:45:14.836Z,9.88
2022-10-31T05:47:41.472Z,9.88
2022-10-31T05:50:09.593Z,9.85
2022-10-31T05:52:36.503Z,9.92
2022-10-31T05:55:03.673Z,9.89
2022-10-31T05:57:30.658Z,9.91
2022-10-31T05:59:57.349Z,9.91
2022-10-31T06:02:24.053Z,9.82
2022-10-31T06:04:50.801Z,9.82
2022-10-31T06:07:17.525Z,9.88
2022-10-31T06:09:44.194Z,9.80
2022-10-31T06:12:10.830Z,9.97
2022-10-31T06:14:37.420Z,9.84
2022-10-31T06:17:04.028Z,9.79
2022-10-31T06:19:30.702Z,9.94
2022-10-31T06:21:57.373Z,9.98
2022-10-31T06:24:23.950Z,9.76
2022-10-31T06:26:50.525Z,10.02
2022-10-31T06:29:17.218Z,9.95
2022-10-31T06:31:43.813Z,9.79
2022-10-31T06:34:10.469Z,9.74
2022-10-31T06:36:37.083Z,9.85
2022-10-31T06:39:03.820Z,9.97
2022-10-31T06:41:30.450Z,9.80
2022-10-31T06:43:57.097Z,9.99
2022-10-31T06:46:23.769Z,9.82
2022-10-31T06:48:50.667Z,9.91
2022-10-31T06:51:17.462Z,9.95
2022-10-31T06:53:44.124Z,9.86
2022-10-31T06:56:10.760Z,9.90
2022-10-31T06:58:37.377Z,9.75
2022-10-31T07:01:04.152Z,9.92
2022-10-31T07:03:30.977Z,9.78
2022-10-31T07:05:58.021Z,9.97
2022-10-31T07:08:24.886Z,9.93
2022-10-31T07:10:53.998Z,9.95
2022-10-31T07:13:25.919Z,10.06
2022-10-31T07:16:03.656Z,10.20
2022-10-31T07:18:30.502Z,10.20
2022-10-31T07:20:57.255Z,10.43
2022-10-31T07:23:23.883Z,10.30
2022-10-31T07:25:56.302Z,10.22
2022-10-31T07:28:23.487Z,10.34
2022-10-31T07:30:54.735Z,10.18
2022-10-31T07:33:21.969Z,10.09
2022-10-31T07:35:48.875Z,10.22
2022-10-31T07:38:16.501Z,10.22
2022-10-31T07:40:43.894Z,10.31
2022-10-31T07:43:14.449Z,10.14
2022-10-31T07:45:42.173Z,10.36
2022-10-31T07:48:08.826Z,10.37
2022-10-31T07:50:35.612Z,10.28
2022-10-31T07:53:07.413Z,10.20
2022-10-31T07:55:35.069Z,10.12
2022-10-31T07:58:10.345Z,10.26
2022-10-31T08:00:38.472Z,10.36
2022-10-31T08:03:08.554Z,10.27
2022-10-31T08:05:36.178Z,10.25
2022-10-31T08:08:04.496Z,10.38
2022-10-31T08:10:31.892Z,10.58
2022-10-31T08:13:04.044Z,10.64
2022-10-31T08:15:31.121Z,10.85
2022-10-31T08:17:58.904Z,10.95
2022-10-31T08:20:25.810Z,11.08
2022-10-31T08:23:03.890Z,11.11
2022-10-31T08:25:35.633Z,11.34
2022-10-31T08:28:06.050Z,11.43
2022-10-31T08:30:35.468Z,11.42
2022-10-31T08:33:09.481Z,11.02
2022-10-31T08:35:36.316Z,11.05
2022-10-31T08:38:03.932Z,10.98
2022-10-31T08:40:32.233Z,11.01
2022-10-31T08:43:12.547Z,11.04
2022-10-31T08:45:39.199Z,10.83
2022-10-31T08:48:08.222Z,10.95
2022-10-31T08:50:36.551Z,11.03
2022-10-31T08:53:15.489Z,10.96
2022-10-31T08:55:43.451Z,10.97
2022-10-31T08:58:15.524Z,10.96
2022-10-31T09:00:43.262Z,11.04
2022-10-31T09:03:22.511Z,10.92
2022-10-31T09:05:49.435Z,10.71
2022-10-31T09:08:17.384Z,10.86
2022-10-31T09:10:47.171Z,10.96
2022-10-31T09:13:17.076Z,11.07
2022-10-31T09:15:44.784Z,11.12
2022-10-31T09:18:12.477Z,11.07
2022-10-31T09:20:40.709Z,11.23
2022-10-31T09:23:16.227Z,11.12
2022-10-31T09:25:49.129Z,11.14
2022-10-31T09:28:19.022Z,11.21
2022-10-31T09:30:48.502Z,11.38
2022-10-31T09:33:15.484Z,11.38
2022-10-31T09:35:42.831Z,11.69
2022-10-31T09:38:21.661Z,11.31
2022-10-31T09:41:07.585Z,11.13
2022-10-31T09:43:52.617Z,11.32
2022-10-31T09:46:46.030Z,11.38
2022-10-31T09:49:34.058Z,11.55
2022-10-31T09:52:03.620Z,11.87
2022-10-31T09:54:43.781Z,11.70
2022-10-31T09:57:15.226Z,11.64
2022-10-31T09:59:44.470Z,11.32
2022-10-31T10:02:40.525Z,11.44
2022-10-31T10:05:12.797Z,11.33
2022-10-31T10:07:52.855Z,11.44
2022-10-31T10:10:33.531Z,11.28
2022-10-31T10:13:24.586Z,11.48
2022-10-31T10:16:34.342Z,11.78
2022-10-31T10:19:22.924Z,12.15
2022-10-31T10:22:23.564Z,11.88
2022-10-31T10:25:01.728Z,12.22
2022-10-31T10:28:02.465Z,12.52
2022-10-31T10:30:41.658Z,12.05
2022-10-31T10:33:43.811Z,12.20
2022-10-31T10:36:19.666Z,12.18
2022-10-31T10:38:55.333Z,12.02
2022-10-31T10:41:29.401Z,11.63
2022-10-31T10:44:02.522Z,11.53
2022-10-31T10:47:07.853Z,11.64
2022-10-31T10:49:50.815Z,11.67
2022-10-31T10:52:42.134Z,11.67
2022-10-31T10:55:21.097Z,11.92
2022-10-31T10:57:56.425Z,12.10
2022-10-31T11:00:24.796Z,12.37
2022-10-31T11:02:51.990Z,12.55
2022-10-31T11:05:49.365Z,12.64
2022-10-31T11:08:30.907Z,12.24
2022-10-31T11:11:26.414Z,12.91
2022-10-31T11:14:00.652Z,12.82
2022-10-31T11:16:27.188Z,12.88
2022-10-31T11:18:55.073Z,12.45
2022-10-31T11:21:28.205Z,12.99
2022-10-31T11:24:09.811Z,13.30
2022-10-31T11:26:40.544Z,13.31
2022-10-31T11:29:15.831Z,13.20
2022-10-31T11:31:45.666Z,12.68
2022-10-31T11:34:31.916Z,12.86
2022-10-31T11:37:24.034Z,12.15
2022-10-31T11:40:02.952Z,12.12
2022-10-31T11:42:37.250Z,12.62
2022-10-31T11:45:15.265Z,12.79
2022-10-31T11:47:49.930Z,12.30
2022-10-31T11:50:24.176Z,12.65
2022-10-31T11:52:52.237Z,12.49
2022-10-31T11:55:36.136Z,12.68
2022-10-31T11:58:04.269Z,12.26
2022-10-31T12:00:38.364Z,12.27
2022-10-31T12:03:13.816Z,12.42
2022-10-31T12:05:42.532Z,12.49
2022-10-31T12:08:14.447Z,12.23
2022-10-31T12:10:53.253Z,12.55
2022-10-31T12:13:32.552Z,12.60
2022-10-31T12:16:09.161Z,12.59
2022-10-31T12:18:48.499Z,12.10
2022-10-31T12:21:23.251Z,12.45
2022-10-31T12:23:49.796Z,12.73
2022-10-31T12:26:24.070Z,13.12
2022-10-31T12:29:30.073Z,13.43
2022-10-31T12:32:36.854Z,13.40
2022-10-31T12:35:18.754Z,13.33
2022-10-31T12:37:53.074Z,12.70
2022-10-31T12:40:44.865Z,12.65
2022-10-31T12:43:14.342Z,12.71
2022-10-31T12:45:52.711Z,12.65
2022-10-31T12:48:41.963Z,12.53
2022-10-31T12:51:42.878Z,12.69
2022-10-31T12:54:28.105Z,12.96
2022-10-31T12:57:28.489Z,12.69
2022-10-31T13:00:04.370Z,12.67
2022-10-31T13:02:36.798Z,12.65
2022-10-31T13:05:12.179Z,12.87
2022-10-31T13:07:54.621Z,13.39
2022-10-31T13:10:27.688Z,13.14
2022-10-31T13:12:58.463Z,13.37
2022-10-31T13:15:32.353Z,13.37
2022-10-31T13:18:03.108Z,13.61
2022-10-31T13:20:34.154Z,13.19
2022-10-31T13:23:36.623Z,13.36
2022-10-31T13:26:10.471Z,13.10
2022-10-31T13:31:15.396Z,12.55
2022-10-31T13:33:52.834Z,12.67
2022-10-31T13:36:25.403Z,12.98
2022-10-31T13:38:55.000Z,13.15
2022-10-31T13:41:27.653Z,12.52
2022-10-31T13:44:02.575Z,12.66
2022-10-31T13:46:32.220Z,12.65
2022-10-31T13:48:58.927Z,12.40
2022-10-31T13:51:31.502Z,12.50
2022-10-31T13:54:08.399Z,12.58
2022-10-31T13:56:36.523Z,12.35
2022-10-31T13:59:12.055Z,12.80
2022-10-31T14:01:48.650Z,12.78
2022-10-31T14:04:24.731Z,12.63
2022-10-31T14:07:07.153Z,12.66
2022-10-31T14:09:53.270Z,12.71
2022-10-31T14:12:32.032Z,12.75
2022-10-31T14:15:23.576Z,12.51
2022-10-31T14:17:55.777Z,12.24
2022-10-31T14:20:34.959Z,12.27
2022-10-31T14:23:31.046Z,12.40
2022-10-31T14:26:27.402Z,12.25
2022-10-31T14:28:57.214Z,12.01
2022-10-31T14:31:36.764Z,12.44
2022-10-31T14:34:21.332Z,12.34
2022-10-31T14:37:06.111Z,12.16
2022-10-31T14:39:42.704Z,12.14
2022-10-31T14:42:54.550Z,11.97
2022-10-31T14:45:40.053Z,11.93
2022-10-31T14:48:15.786Z,11.91
2022-10-31T14:50:54.099Z,11.68
2022-10-31T14:53:26.401Z,11.72
2022-10-31T14:55:55.586Z,11.85
2022-10-31T15:01:03.317Z,11.78
2022-10-31T15:04:10.483Z,11.86
2022-10-31T15:06:44.038Z,11.88
2022-10-31T15:09:25.484Z,12.10
2022-10-31T15:11:52.488Z,12.28
2022-10-31T15:14:45.517Z,12.11
2022-10-31T15:17:13.324Z,11.96
2022-10-31T15:19:40.189Z,12.11
2022-10-31T15:22:10.485Z,11.91
2022-10-31T15:24:39.907Z,11.91
2022-10-31T15:27:13.766Z,11.50
2022-10-31T15:29:52.422Z,11.57
2022-10-31T15:32:21.453Z,11.53
2022-10-31T15:34:48.070Z,11.50
2022-10-31T15:37:20.440Z,11.78
2022-10-31T15:39:48.472Z,11.76
2022-10-31T15:42:41.717Z,11.69
2022-10-31T15:45:14.500Z,11.79
2022-10-31T15:47:54.693Z,11.67
2022-10-31T15:50:38.712Z,11.95
2022-10-31T15:53:36.026Z,11.82
2022-10-31T15:56:07.199Z,11.68
2022-10-31T15:58:51.449Z,11.53
2022-10-31T16:01:34.400Z,11.66
2022-10-31T16:04:13.058Z,11.51
2022-10-31T16:06:39.949Z,11.43
2022-10-31T16:09:23.118Z,11.45
2022-10-31T16:11:49.957Z,11.57
2022-10-31T16:14:25.269Z,11.73
2022-10-31T16:16:56.587Z,11.82
2022-10-31T16:19:23.142Z,11.87
2022-10-31T16:21:53.472Z,11.61
2022-10-31T16:24:32.890Z,11.30
2022-10-31T16:27:10.246Z,11.25
2022-10-31T16:29:44.862Z,11.30
2022-10-31T16:32:54.919Z,11.23
2022-10-31T16:35:40.454Z,11.33
2022-10-31T16:38:10.432Z,11.29
2022-10-31T16:40:39.093Z,11.20
2022-10-31T16:43:06.150Z,11.13
2022-10-31T16:45:34.077Z,11.03
2022-10-31T16:48:13.110Z,11.23
2022-10-31T16:50:39.865Z,11.43
2022-10-31T16:53:14.940Z,11.75
2022-10-31T16:56:03.074Z,11.52
2022-10-31T16:58:33.639Z,11.48
2022-10-31T17:01:02.114Z,11.21
2022-10-31T17:03:28.875Z,10.81
2022-10-31T17:05:56.467Z,11.12
2022-10-31T17:08:24.793Z,10.88
2022-10-31T17:10:59.176Z,10.99
2022-10-31T17:13:28.717Z,11.01
2022-10-31T17:15:58.462Z,11.10
2022-10-31T17:18:27.646Z,11.07
2022-10-31T17:21:14.340Z,11.10
2022-10-31T17:23:40.972Z,11.13
2022-10-31T17:26:10.315Z,10.96
2022-10-31T17:28:37.259Z,11.01
2022-10-31T17:31:03.999Z,10.98
2022-10-31T17:33:30.611Z,11.03
2022-10-31T17:35:57.224Z,10.94
2022-10-31T17:38:23.884Z,10.94
2022-10-31T17:40:50.470Z,11.22
2022-10-31T17:43:17.089Z,11.19
2022-10-31T17:45:43.742Z,11.13
2022-10-31T17:48:12.571Z,10.98
2022-10-31T17:50:39.273Z,10.39
2022-10-31T17:53:06.053Z,10.99
2022-10-31T17:55:36.181Z,10.27
2022-10-31T17:58:04.530Z,10.71
2022-10-31T18:00:31.278Z,10.94
2022-10-31T18:02:57.974Z,10.99
2022-10-31T18:05:24.656Z,10.61
2022-10-31T18:07:51.342Z,10.98
2022-10-31T18:10:18.262Z,11.34
2022-10-31T18:12:47.762Z,11.09
2022-10-31T18:15:15.726Z,11.10
2022-10-31T18:17:46.458Z,11.01
2022-10-31T18:20:13.382Z,11.21
2022-10-31T18:22:39.997Z,11.07
2022-10-31T18:25:06.836Z,10.86
2022-10-31T18:27:33.406Z,10.73
2022-10-31T18:30:00.022Z,10.77
2022-10-31T18:32:26.599Z,10.81
2022-10-31T18:34:53.847Z,11.06
2022-10-31T18:37:20.476Z,10.97
2022-10-31T18:39:47.062Z,11.04
2022-10-31T18:42:13.707Z,10.84
2022-10-31T18:44:40.430Z,10.47
2022-10-31T18:47:07.050Z,11.15
2022-10-31T18:49:33.632Z,11.03
2022-10-31T18:52:00.739Z,10.96
2022-10-31T18:54:27.375Z,10.88
2022-10-31T18:56:54.585Z,10.90
2022-10-31T18:59:21.221Z,10.20
2022-10-31T19:01:47.908Z,10.39
2022-10-31T19:04:14.637Z,10.59
2022-10-31T19:06:41.369Z,10.49
2022-10-31T19:09:09.794Z,10.54
2022-10-31T19:11:39.855Z,11.04
2022-10-31T19:14:08.504Z,10.85
2022-10-31T19:16:37.120Z,10.88
2022-10-31T19:19:03.907Z,10.84
2022-10-31T19:21:34.705Z,10.92
2022-10-31T19:24:02.136Z,10.99
2022-10-31T19:26:28.769Z,11.01
2022-10-31T19:28:56.662Z,10.91
2022-10-31T19:31:24.086Z,10.80
2022-10-31T19:33:51.031Z,10.90
2022-10-31T19:36:19.046Z,10.62
2022-10-31T19:38:48.566Z,10.55
2022-10-31T19:41:20.706Z,10.40
2022-10-31T19:43:47.898Z,10.50
2022-10-31T19:46:27.765Z,10.57
2022-10-31T19:49:02.621Z,10.69
2022-10-31T19:51:29.192Z,10.64
2022-10-31T19:53:55.809Z,10.48
2022-10-31T19:56:25.383Z,10.62
2022-10-31T19:58:52.127Z,10.53
2022-10-31T20:01:22.056Z,10.75
2022-10-31T20:03:50.036Z,10.53
2022-10-31T20:06:28.219Z,10.64
2022-10-31T20:08:56.211Z,10.90
2022-10-31T20:11:27.727Z,10.84
2022-10-31T20:14:00.769Z,10.66
2022-10-31T20:16:28.363Z,10.50
2022-10-31T20:18:55.434Z,10.66
2022-10-31T20:21:25.001Z,10.74
2022-10-31T20:24:03.050Z,10.59
2022-10-31T20:26:31.718Z,10.61
2022-10-31T20:28:59.386Z,10.76
2022-10-31T20:31:28.699Z,10.70
2022-10-31T20:33:55.895Z,10.78
2022-10-31T20:36:23.444Z,10.92
2022-10-31T20:38:51.645Z,10.75
2022-10-31T20:41:19.134Z,10.65
2022-10-31T20:43:46.345Z,10.73
2022-10-31T20:46:21.749Z,10.50
2022-10-31T20:48:48.590Z,10.21
2022-10-31T20:51:21.960Z,10.58
2022-10-31T20:53:50.399Z,10.52
2022-10-31T20:56:20.165Z,10.57
2022-10-31T20:58:47.539Z,10.26
2022-10-31T21:01:20.136Z,10.15
2022-10-31T21:03:48.236Z,10.37
2022-10-31T21:06:15.970Z,10.44
2022-10-31T21:08:43.185Z,10.36
2022-10-31T21:11:12.635Z,10.34
2022-10-31T21:13:42.237Z,10.35
2022-10-31T21:16:14.643Z,10.07
2022-10-31T21:18:44.030Z,10.30
2022-10-31T21:21:13.505Z,10.03
2022-10-31T21:23:40.765Z,9.72
2022-10-31T21:26:19.324Z,10.47
2022-10-31T21:28:45.939Z,10.50
2022-10-31T21:31:14.698Z,10.25
2022-10-31T21:33:42.097Z,10.24
2022-10-31T21:36:09.804Z,10.31
2022-10-31T21:38:37.160Z,10.25
2022-10-31T21:41:06.186Z,10.44
2022-10-31T21:43:36.057Z,10.21
2022-10-31T21:46:10.838Z,10.11
2022-10-31T21:48:43.499Z,9.80
2022-10-31T21:51:21.558Z,10.22
2022-10-31T21:54:07.576Z,10.36
2022-10-31T21:56:35.482Z,10.36
2022-10-31T21:59:02.676Z,9.92
2022-10-31T22:01:29.945Z,9.92
2022-10-31T22:03:57.691Z,9.70
2022-10-31T22:06:30.015Z,9.68
2022-10-31T22:08:59.200Z,9.85
2022-10-31T22:11:26.928Z,9.91
2022-10-31T22:13:53.919Z,9.98
2022-10-31T22:16:22.330Z,10.00
2022-10-31T22:18:55.595Z,9.74
2022-10-31T22:21:24.189Z,9.72
2022-10-31T22:23:52.666Z,9.59
2022-10-31T22:26:19.942Z,9.77
2022-10-31T22:28:48.770Z,9.82
2022-10-31T22:31:17.587Z,9.59
2022-10-31T22:33:45.457Z,9.58
2022-10-31T22:36:15.328Z,9.65
2022-10-31T22:38:42.554Z,9.67
2022-10-31T22:41:17.194Z,9.70
2022-10-31T22:43:44.206Z,9.98
2022-10-31T22:46:23.134Z,9.97
2022-10-31T22:48:52.206Z,10.15
2022-10-31T22:51:27.004Z,9.99
2022-10-31T22:53:56.817Z,10.14
2022-10-31T22:56:26.379Z,10.09
2022-10-31T22:58:53.962Z,9.75
2022-10-31T23:01:26.975Z,9.90
2022-10-31T23:03:53.746Z,9.72
2022-10-31T23:06:23.318Z,9.92
2022-10-31T23:08:51.571Z,9.80
2022-10-31T23:11:23.626Z,9.71
2022-10-31T23:14:13.240Z,9.82
2022-10-31T23:16:53.677Z,9.63
2022-10-31T23:19:22.617Z,9.72
2022-10-31T23:21:56.495Z,9.67
2022-10-31T23:24:26.533Z,9.57
2022-10-31T23:27:09.848Z,9.71
2022-10-31T23:29:48.535Z,9.86
2022-10-31T23:32:21.449Z,9.83
2022-10-31T23:34:50.509Z,9.79
2022-10-31T23:37:18.695Z,9.53
2022-10-31T23:39:47.704Z,9.66
2022-10-31T23:42:15.575Z,9.26
2022-10-31T23:44:42.934Z,9.49
2022-10-31T23:47:09.670Z,9.55
2022-10-31T23:49:37.385Z,9.64
2022-10-31T23:52:05.361Z,9.68
2022-10-31T23:54:32.713Z,9.79
2022-10-31T23:56:59.733Z,9.78
2022-10-31T23:59:26.888Z,9.44
